Time;durP1;ratioP1;P1;durP2;ratioP2;P2;SDS_P1;SDS_P2;PMS_P1;PMS_P2;Temp;Humidity;BMP_temperature;BMP_pressure;BME280_temperature;BME280_humidity;BME280_pressure;Samples;Min_cycle;Max_cycle;Signal;HPM_P1;HPM_P2
2022/09/29 00:01:02;;;;;;;14.93;10.00;;;;;;;5.63;100.00;99805.72;5270173;28;20025;-76
2022/09/29 00:03:33;;;;;;;14.63;9.80;;;;;;;5.61;100.00;99812.66;5266542;28;20041;-76
2022/09/29 00:06:13;;;;;;;10.50;9.40;;;;;;;5.61;100.00;99812.66;5265443;28;20024;-76
2022/09/29 00:08:45;;;;;;;11.18;9.38;;;;;;;5.51;100.00;99813.59;5266368;28;20083;-76
2022/09/29 00:11:18;;;;;;;11.45;9.18;;;;;;;5.48;100.00;99810.16;5266299;28;20056;-76
2022/09/29 00:13:49;;;;;;;;;;;;;;;5.47;100.00;99815.34;5266198;28;20059;-76
2022/09/29 00:16:20;;;;;;;10.80;9.35;;;;;;;5.48;100.00;99810.16;5266881;28;20316;-76
2022/09/29 00:18:56;;;;;;;10.67;8.70;;;;;;;5.46;100.00;99811.91;5266109;28;20033;-75
2022/09/29 00:21:27;;;;;;;12.50;9.60;;;;;;;5.41;100.00;99813.66;5265577;28;20033;-76
2022/09/29 00:24:00;;;;;;;14.77;9.68;;;;;;;5.34;100.00;99818.88;5265689;28;20095;-76
2022/09/29 00:26:31;;;;;;;12.67;9.03;;;;;;;5.28;100.00;99814.59;5265997;28;20033;-76
2022/09/29 00:29:03;;;;;;;11.47;9.43;;;;;;;5.32;100.00;99811.13;5266295;28;20082;-76
2022/09/29 00:31:34;;;;;;;11.17;9.40;;;;;;;5.26;100.00;99814.63;5266013;28;20032;-76
2022/09/29 00:34:05;;;;;;;10.60;9.47;;;;;;;5.28;100.00;99806.84;5264931;28;20029;-77
2022/09/29 00:36:37;;;;;;;10.70;9.50;;;;;;;5.23;100.00;99806.03;5265805;28;20120;-76
2022/09/29 00:39:09;;;;;;;15.93;9.63;;;;;;;5.21;100.00;99803.44;5247685;28;20025;-76
2022/09/29 00:41:41;;;;;;;11.67;9.23;;;;;;;5.19;100.00;99805.19;5266346;28;20037;-76
2022/09/29 00:44:12;;;;;;;11.20;10.07;;;;;;;5.15;100.00;99812.97;5265732;28;20038;-76
2022/09/29 00:46:54;;;;;;;12.07;9.43;;;;;;;5.15;100.00;99810.38;5265961;28;20464;-76
2022/09/29 00:49:28;;;;;;;12.13;9.98;;;;;;;5.10;100.00;99807.84;5265624;28;20025;-76
2022/09/29 00:52:02;;;;;;;12.00;10.15;;;;;;;5.11;100.00;99813.00;5265805;28;20036;-76
2022/09/29 00:54:42;;;;;;;12.65;10.15;;;;;;;5.13;100.00;99810.41;5266033;28;20365;-76
2022/09/29 00:57:17;;;;;;;13.82;10.13;;;;;;;5.07;100.00;99810.44;5264427;28;20104;-76
2022/09/29 01:00:07;;;;;;;14.30;11.98;;;;;;;5.09;100.00;99806.13;5265695;28;20025;-76
2022/09/29 01:02:45;;;;;;;12.88;9.82;;;;;;;4.99;100.00;99802.75;5265664;28;20526;-76
2022/09/29 01:05:22;;;;;;;15.07;10.40;;;;;;;4.96;100.00;99807.94;5264858;28;20019;-76
2022/09/29 01:07:54;;;;;;;15.77;11.88;;;;;;;4.96;100.00;99801.88;5265463;28;20060;-76
2022/09/29 01:10:26;;;;;;;15.23;11.77;;;;;;;4.91;100.00;99799.31;5265191;28;20088;-76
2022/09/29 01:12:57;;;;;;;16.02;11.68;;;;;;;4.84;100.00;99797.66;5265170;28;20025;-76
2022/09/29 01:15:30;;;;;;;12.33;11.03;;;;;;;4.89;100.00;99795.91;5265176;28;20056;-76
2022/09/29 01:18:01;;;;;;;12.93;10.52;;;;;;;4.88;100.00;99801.94;5263583;28;20029;-75
2022/09/29 01:20:46;;;;;;;12.97;9.43;;;;;;;4.82;100.00;99800.25;5265240;28;20040;-76
2022/09/29 01:23:28;;;;;;;12.18;9.65;;;;;;;4.77;100.00;99801.16;5265169;28;20079;-76
2022/09/29 01:26:27;;;;;;;13.93;11.00;;;;;;;4.74;100.00;99805.44;5265299;28;20474;-76
2022/09/29 01:29:20;;;;;;;13.23;11.15;;;;;;;4.67;100.00;99801.19;5265183;28;20108;-76
2022/09/29 01:32:00;;;;;;;13.43;10.30;;;;;;;4.72;100.00;99802.03;5265352;28;20025;-76
2022/09/29 01:34:50;;;;;;;14.05;10.73;;;;;;;4.66;100.00;99809.78;5265142;28;20158;-76
2022/09/29 01:37:52;;;;;;;12.45;11.20;;;;;;;4.62;100.00;99810.69;5265008;28;20478;-76
2022/09/29 01:41:06;;;;;;;13.05;11.20;;;;;;;4.61;100.00;99806.38;5264649;28;20483;-76
2022/09/29 01:43:46;;;;;;;14.68;10.63;;;;;;;4.53;100.00;99803.81;5264541;28;20029;-76
2022/09/29 01:46:23;;;;;;;13.77;11.15;;;;;;;4.47;100.00;99806.41;5264388;28;20029;-75
2022/09/29 01:48:57;;;;;;;12.38;11.02;;;;;;;4.51;100.00;99799.53;5265881;28;20128;-75
2022/09/29 01:51:35;;;;;;;16.80;11.52;;;;;;;4.44;100.00;99809.00;5264581;28;20025;-75
2022/09/29 01:54:17;;;;;;;14.35;11.20;;;;;;;4.38;100.00;99806.47;5264255;28;20025;-75
2022/09/29 01:56:55;;;;;;;11.80;10.27;;;;;;;4.44;100.00;99806.41;5267265;28;20024;-74
2022/09/29 01:59:48;;;;;;;16.50;10.55;;;;;;;4.38;100.00;99809.06;5273527;28;20039;-74
2022/09/29 02:02:29;;;;;;;13.90;11.15;;;;;;;4.34;100.00;99810.75;5266351;28;20368;-76
2022/09/29 02:05:03;;;;;;;17.25;11.68;;;;;;;4.35;100.00;99807.31;5264413;28;20040;-76
2022/09/29 02:07:41;;;;;;;15.27;10.98;;;;;;;4.29;100.00;99807.34;5263894;28;20041;-76
2022/09/29 02:10:22;;;;;;;12.80;11.18;;;;;;;4.28;100.00;99805.63;5263962;28;20025;-76
2022/09/29 02:12:56;;;;;;;13.23;11.10;;;;;;;4.33;100.00;99810.75;5264398;28;20116;-76
2022/09/29 02:15:33;;;;;;;15.05;11.77;;;;;;;4.32;100.00;99814.22;5263409;28;20045;-76
2022/09/29 02:18:33;;;;;;;15.13;11.10;;;;;;;4.25;100.00;99815.97;5263439;28;20446;-76
2022/09/29 02:21:05;;;;;;;15.88;11.88;;;;;;;4.22;100.00;99812.50;5264170;28;20071;-76
2022/09/29 02:23:36;;;;;;;13.77;12.33;;;;;;;4.20;100.00;99809.94;5263694;28;20059;-76
2022/09/29 02:26:11;;;;;;;14.83;12.73;;;;;;;4.19;100.00;99803.94;5263741;28;20059;-77
2022/09/29 02:28:44;;;;;;;16.52;13.15;;;;;;;4.27;100.00;99811.66;5263957;28;20116;-76
2022/09/29 02:31:15;;;;;;;;;;;;;;;4.15;100.00;99811.66;5264069;28;20032;-76
2022/09/29 02:33:46;;;;;;;19.42;13.45;;;;;;;4.22;100.00;99812.50;5262287;28;19982;-76
2022/09/29 02:36:41;;;;;;;18.90;12.83;;;;;;;4.20;100.00;99812.50;5263858;28;20376;-76
2022/09/29 02:39:34;;;;;;;17.58;14.65;;;;;;;4.18;100.00;99811.66;5263723;28;20029;-76
2022/09/29 02:42:27;;;;;;;16.42;14.73;;;;;;;4.11;100.00;99810.81;5263928;28;20187;-77
2022/09/29 02:45:07;;;;;;;21.80;17.30;;;;;;;4.13;100.00;99803.09;5263200;28;20029;-77
2022/09/29 02:47:51;;;;;;;24.75;19.38;;;;;;;4.11;100.00;99809.97;5263596;28;20069;-77
2022/09/29 02:50:53;;;;;;;21.98;19.08;;;;;;;4.09;100.00;99809.09;5263828;28;20025;-76
2022/09/29 02:53:25;;;;;;;23.40;18.95;;;;;;;4.06;100.00;99811.69;5263510;28;20476;-77
2022/09/29 02:56:07;;;;;;;30.70;22.17;;;;;;;4.00;100.00;99816.00;5263445;28;20025;-77
2022/09/29 02:58:50;;;;;;;28.23;23.40;;;;;;;3.99;100.00;99808.25;5270006;28;20025;-75
2022/09/29 03:01:22;;;;;;;42.42;31.85;;;;;;;3.99;100.00;99814.28;5270644;28;20104;-77
2022/09/29 03:03:54;;;;;;;37.75;29.17;;;;;;;3.88;100.00;99817.72;5263374;28;20036;-77
2022/09/29 03:06:26;;;;;;;37.63;31.93;;;;;;;3.90;100.00;99813.44;5263523;28;20025;-77
2022/09/29 03:08:58;;;;;;;23.10;20.60;;;;;;;3.91;100.00;99810.88;5263040;28;20116;-77
2022/09/29 03:11:29;;;;;;;18.40;14.80;;;;;;;3.82;100.00;99809.16;5263302;28;20112;-77
2022/09/29 03:14:00;;;;;;;16.37;14.10;;;;;;;3.77;100.00;99810.03;5262778;28;20132;-77
2022/09/29 03:16:32;;;;;;;16.87;14.80;;;;;;;3.80;100.00;99817.72;5262707;28;20037;-77
2022/09/29 03:19:04;;;;;;;17.02;14.90;;;;;;;3.78;100.00;99811.72;5262021;28;20032;-77
2022/09/29 03:21:36;;;;;;;19.60;16.27;;;;;;;3.71;100.00;99810.03;5262793;28;20025;-77
2022/09/29 03:24:07;;;;;;;19.50;16.00;;;;;;;3.71;100.00;99808.28;5262615;28;20029;-77
2022/09/29 03:26:38;;;;;;;19.93;17.10;;;;;;;3.72;100.00;99811.72;5262636;28;20478;-77
2022/09/29 03:29:10;;;;;;;22.43;16.43;;;;;;;3.73;100.00;99810.88;5262949;28;20040;-76
2022/09/29 03:31:41;;;;;;;21.97;17.13;;;;;;;3.75;100.00;99812.59;5262229;28;20444;-76
2022/09/29 03:34:12;;;;;;;21.13;15.00;;;;;;;3.68;100.00;99802.28;5262925;28;20037;-77
2022/09/29 03:36:44;;;;;;;16.10;13.83;;;;;;;3.64;100.00;99807.44;5262495;28;20428;-76
2022/09/29 03:39:15;;;;;;;16.67;14.17;;;;;;;3.63;100.00;99812.59;5262392;28;20029;-77
2022/09/29 03:41:47;;;;;;;16.63;13.40;;;;;;;3.62;100.00;99818.59;5262599;28;20029;-76
2022/09/29 03:44:18;;;;;;;33.40;22.83;;;;;;;3.62;100.00;99814.31;5262913;28;20029;-77
2022/09/29 03:46:49;;;;;;;34.63;24.00;;;;;;;3.64;100.00;99822.06;5262259;28;20054;-77
2022/09/29 03:49:21;;;;;;;52.23;36.90;;;;;;;3.63;100.00;99810.03;5262580;28;20112;-77
2022/09/29 03:51:52;;;;;;;28.53;22.03;;;;;;;3.62;100.00;99816.91;5261375;28;20021;-76
2022/09/29 03:54:25;;;;;;;23.30;17.83;;;;;;;3.53;100.00;99806.59;5269119;28;20110;-78
2022/09/29 03:56:56;;;;;;;17.38;13.98;;;;;;;3.56;100.00;99814.31;5265919;28;20464;-77
2022/09/29 03:59:28;;;;;;;18.83;14.33;;;;;;;3.57;100.00;99815.16;5274130;28;20036;-76
2022/09/29 04:01:59;;;;;;;20.73;16.67;;;;;;;3.57;100.00;99820.31;5270136;28;20495;-77
2022/09/29 04:04:30;;;;;;;17.47;15.00;;;;;;;3.53;100.00;99828.94;5262440;28;20037;-77
2022/09/29 04:07:02;;;;;;;20.70;16.77;;;;;;;3.46;100.00;99820.31;5262305;28;20043;-76
2022/09/29 04:09:33;;;;;;;21.33;19.00;;;;;;;3.51;100.00;99833.19;5261314;28;20108;-77
2022/09/29 04:12:05;;;;;;;31.40;23.93;;;;;;;3.44;100.00;99820.31;5278040;28;20087;-77
2022/09/29 04:14:36;;;;;;;34.97;25.80;;;;;;;3.42;100.00;99829.75;5262792;28;20049;-76
2022/09/29 04:17:07;;;;;;;32.87;24.40;;;;;;;3.36;100.00;99828.91;5260724;28;20021;-77
2022/09/29 04:19:39;;;;;;;29.47;22.30;;;;;;;3.35;100.00;99827.16;5262777;28;20039;-77
2022/09/29 04:22:10;;;;;;;37.80;27.93;;;;;;;3.36;100.00;99834.06;5262278;28;20040;-77
2022/09/29 04:24:42;;;;;;;19.67;16.83;;;;;;;3.29;100.00;99836.63;5261138;28;20032;-77
2022/09/29 04:27:15;;;;;;;19.40;16.77;;;;;;;3.33;100.00;99836.63;5261981;28;20029;-76
2022/09/29 04:29:46;;;;;;;;;;;;;;;3.23;100.00;99841.75;5261163;28;20051;-76
2022/09/29 04:32:17;;;;;;;21.88;17.13;;;;;;;3.34;100.00;99840.94;5262128;28;20407;-76
2022/09/29 04:34:49;;;;;;;21.50;16.03;;;;;;;3.34;100.00;99846.06;5261751;28;20036;-76
2022/09/29 04:37:20;;;;;;;19.33;15.60;;;;;;;3.26;100.00;99840.91;5260794;28;20372;-76
2022/09/29 04:39:53;;;;;;;17.70;15.87;;;;;;;3.22;100.00;99837.47;5262711;28;20065;-77
2022/09/29 04:42:24;;;;;;;18.35;15.80;;;;;;;3.22;100.00;99842.63;5265775;28;20114;-77
2022/09/29 04:44:55;;;;;;;20.43;14.67;;;;;;;3.23;100.00;99848.63;5265819;28;20029;-76
2022/09/29 04:47:27;;;;;;;20.47;14.63;;;;;;;3.21;100.00;99848.63;5265644;28;20070;-76
2022/09/29 04:49:58;;;;;;;23.87;18.70;;;;;;;3.15;100.00;99846.03;5265703;28;20037;-76
2022/09/29 04:52:30;;;;;;;23.17;17.90;;;;;;;3.17;100.00;99846.03;5265765;28;20031;-75
2022/09/29 04:55:03;;;;;;;18.03;16.00;;;;;;;3.21;100.00;99847.78;5265134;28;20120;-76
2022/09/29 04:57:34;;;;;;;29.17;21.23;;;;;;;3.21;100.00;99853.78;5265422;28;20495;-77
2022/09/29 05:00:06;;;;;;;29.00;20.60;;;;;;;3.20;100.00;99849.47;5265515;28;20029;-77
2022/09/29 05:02:38;;;;;;;23.40;18.17;;;;;;;3.17;100.00;99854.63;5265857;28;20530;-77
2022/09/29 05:05:11;;;;;;;22.23;17.40;;;;;;;3.23;100.00;99854.63;5265605;28;20025;-76
2022/09/29 05:07:43;;;;;;;22.27;18.80;;;;;;;3.23;100.00;99856.34;5265163;28;20029;-77
2022/09/29 05:10:14;;;;;;;25.50;20.80;;;;;;;3.18;100.00;99858.06;5265177;28;20032;-77
2022/09/29 05:12:48;;;;;;;35.00;22.50;;;;;;;3.18;100.00;99863.22;5265725;28;20028;-77
2022/09/29 05:15:20;;;;;;;22.50;18.80;;;;;;;3.19;100.00;99875.22;5265188;28;20075;-77
2022/09/29 05:17:51;;;;;;;21.33;17.40;;;;;;;3.12;100.00;99876.91;5264942;28;20029;-77
2022/09/29 05:20:23;;;;;;;23.90;19.07;;;;;;;3.06;100.00;99867.47;5263873;28;20040;-77
2022/09/29 05:22:56;;;;;;;22.70;18.97;;;;;;;3.03;100.00;99871.75;5263969;28;20048;-78
2022/09/29 05:25:28;;;;;;;26.55;20.40;;;;;;;3.04;100.00;99883.75;5264139;28;20036;-77
2022/09/29 05:27:59;;;;;;;31.97;23.00;;;;;;;3.00;100.00;99885.47;5265080;28;20381;-77
2022/09/29 05:30:31;;;;;;;24.33;19.10;;;;;;;3.00;100.00;99884.63;5263474;28;20037;-77
2022/09/29 05:33:02;;;;;;;28.33;20.57;;;;;;;2.95;100.00;99883.72;5264320;28;20040;-77
2022/09/29 05:35:33;;;;;;;30.80;24.77;;;;;;;2.97;100.00;99884.59;5264325;28;20079;-77
2022/09/29 05:38:05;;;;;;;28.07;23.13;;;;;;;2.94;100.00;99887.16;5264316;28;20025;-76
2022/09/29 05:40:36;;;;;;;29.70;22.33;;;;;;;2.94;100.00;99889.75;5264399;28;20060;-76
2022/09/29 05:43:07;;;;;;;26.07;22.67;;;;;;;2.95;100.00;99896.59;5262992;28;20040;-77
2022/09/29 05:45:39;;;;;;;28.80;23.20;;;;;;;2.91;100.00;99886.31;5264709;28;20405;-77
2022/09/29 05:48:10;;;;;;;32.77;23.23;;;;;;;2.91;100.00;99893.16;5263401;28;20359;-77
2022/09/29 05:50:42;;;;;;;28.90;23.03;;;;;;;2.91;100.00;99896.59;5264486;28;20120;-77
2022/09/29 05:53:13;;;;;;;22.60;17.97;;;;;;;2.91;100.00;99895.72;5264955;28;20060;-77
2022/09/29 05:55:44;;;;;;;23.70;19.07;;;;;;;2.96;100.00;99904.31;5264451;28;20476;-77
2022/09/29 05:58:16;;;;;;;23.27;19.23;;;;;;;3.00;100.00;99902.66;5248050;28;20064;-78
2022/09/29 06:00:47;;;;;;;23.90;20.83;;;;;;;3.01;100.00;99900.06;5266678;28;20033;-77
2022/09/29 06:03:18;;;;;;;34.77;25.17;;;;;;;3.04;100.00;99900.09;5264146;28;20469;-78
2022/09/29 06:05:50;;;;;;;38.33;31.13;;;;;;;3.06;100.00;99900.94;5264208;28;20036;-77
2022/09/29 06:08:21;;;;;;;67.50;43.33;;;;;;;3.09;100.00;99902.66;5264172;28;20495;-77
2022/09/29 06:10:52;;;;;;;74.53;51.40;;;;;;;3.12;100.00;99909.53;5263839;28;20033;-78
2022/09/29 06:13:24;;;;;;;60.47;43.53;;;;;;;3.18;100.00;99912.16;5263658;28;20020;-78
2022/09/29 06:15:57;;;;;;;79.10;56.87;;;;;;;3.23;100.00;99918.16;5263918;28;20053;-78
2022/09/29 06:18:29;;;;;;;62.92;49.92;;;;;;;3.23;100.00;99920.75;5263434;28;20056;-78
2022/09/29 06:21:06;;;;;;;68.40;53.30;;;;;;;3.30;100.00;99919.91;5263714;28;20067;-78
2022/09/29 06:23:38;;;;;;;50.70;38.97;;;;;;;3.39;100.00;99919.06;5263456;28;20112;-78
2022/09/29 06:26:14;;;;;;;69.77;51.37;;;;;;;3.45;100.00;99921.66;5263885;28;20108;-78
2022/09/29 06:28:46;;;;;;;65.28;46.00;;;;;;;3.48;100.00;99924.25;5263020;28;20283;-78
2022/09/29 06:31:20;;;;;;;81.10;57.13;;;;;;;3.57;100.00;99925.97;5263784;28;20029;-77
2022/09/29 06:33:52;;;;;;;94.72;67.18;;;;;;;3.67;100.00;99921.69;5262958;28;20479;-78
2022/09/29 06:39:17;;;;;;;48.20;32.95;;;;;;;3.89;100.00;99933.75;5263291;28;20037;-78
2022/09/29 06:41:53;;;;;;;49.40;36.57;;;;;;;3.96;100.00;99940.66;5262006;28;20025;-78
2022/09/29 06:44:27;;;;;;;48.33;36.08;;;;;;;4.07;100.00;99935.47;5261968;28;20079;-77
2022/09/29 06:46:58;;;;;;;58.38;45.47;;;;;;;4.17;100.00;99944.06;5262954;28;20449;-78
2022/09/29 06:49:29;;;;;;;41.57;30.70;;;;;;;4.24;100.00;99940.66;5262988;28;20044;-78
2022/09/29 06:52:02;;;;;;;44.87;29.53;;;;;;;4.32;100.00;99946.66;5261968;28;20025;-78
2022/09/29 06:54:33;;;;;;;39.53;28.83;;;;;;;4.40;100.00;99948.38;5262931;28;20037;-77
2022/09/29 06:57:05;;;;;;;80.03;56.70;;;;;;;4.46;100.00;99950.94;5264035;28;20120;-79
2022/09/29 06:59:36;;;;;;;45.77;32.87;;;;;;;4.55;100.00;99944.03;5267131;28;20022;-77
2022/09/29 07:02:09;;;;;;;43.10;33.00;;;;;;;4.64;100.00;99948.34;5266308;28;20086;-78
2022/09/29 07:04:41;;;;;;;71.18;50.65;;;;;;;4.78;100.00;99950.88;5262968;28;20444;-78
2022/09/29 07:07:12;;;;;;;57.20;42.63;;;;;;;4.78;100.00;99952.59;5261352;28;20064;-78
2022/09/29 07:09:43;;;;;;;41.67;32.07;;;;;;;4.87;100.00;99950.84;5262618;28;20091;-78
2022/09/29 07:12:15;;;;;;;43.57;33.77;;;;;;;5.00;100.00;99962.00;5262628;28;20526;-78
2022/09/29 07:14:46;;;;;;;44.00;30.40;;;;;;;5.11;100.00;99959.41;5262724;28;20053;-78
2022/09/29 07:17:17;;;;;;;36.07;29.10;;;;;;;5.26;100.00;99971.38;5261294;28;20033;-78
2022/09/29 07:19:49;;;;;;;42.63;33.20;;;;;;;5.33;100.00;99964.47;5261357;28;20083;-78
2022/09/29 07:22:20;;;;;;;40.37;31.17;;;;;;;5.43;100.00;99974.75;5262428;28;20040;-80
2022/09/29 07:24:52;;;;;;;44.93;34.63;;;;;;;5.53;100.00;99980.75;5261162;28;20487;-78
2022/09/29 07:27:24;;;;;;;36.88;27.98;;;;;;;5.67;100.00;99975.50;5262368;28;20033;-78
2022/09/29 07:29:55;;;;;;;36.10;27.57;;;;;;;5.80;100.00;99984.06;5262808;28;20032;-78
2022/09/29 07:32:26;;;;;;;34.63;27.43;;;;;;;5.97;100.00;99983.94;5262935;28;20033;-78
2022/09/29 07:35:01;;;;;;;33.33;25.40;;;;;;;6.09;100.00;99976.13;5260708;28;20037;-78
2022/09/29 07:37:32;;;;;;;28.35;23.77;;;;;;;6.31;100.00;99992.34;5262370;28;20033;-77
2022/09/29 07:40:04;;;;;;;27.67;23.60;;;;;;;6.48;100.00;99996.50;5262076;28;20063;-78
2022/09/29 07:42:35;;;;;;;30.13;23.20;;;;;;;6.57;100.00;99989.53;5262257;28;20044;-78
2022/09/29 07:45:07;;;;;;;33.30;27.40;;;;;;;6.64;100.00;99987.72;5262510;28;20441;-77
2022/09/29 07:47:38;;;;;;;27.80;21.43;;;;;;;6.76;100.00;99986.75;5262227;28;20064;-77
2022/09/29 07:50:11;;;;;;;26.83;20.80;;;;;;;6.88;100.00;99996.13;5260949;28;20731;-77
2022/09/29 07:52:42;;;;;;;29.45;19.77;;;;;;;6.94;100.00;99999.53;5262405;28;20061;-77
2022/09/29 07:55:14;;;;;;;24.03;19.20;;;;;;;7.06;100.00;99998.53;5261969;28;20060;-77
2022/09/29 07:57:48;;;;;;;24.33;17.33;;;;;;;7.10;100.00;100001.97;5271026;28;20060;-76
2022/09/29 08:00:20;;;;;;;21.88;18.27;;;;;;;7.17;100.00;100001.00;5271770;28;20089;-76
2022/09/29 08:02:51;;;;;;;25.10;17.00;;;;;;;7.34;100.00;100003.41;5262362;28;20116;-76
2022/09/29 08:05:23;;;;;;;24.10;16.27;;;;;;;7.50;100.00;100009.22;5262129;28;20071;-76
2022/09/29 08:07:54;;;;;;;18.27;16.37;;;;;;;7.61;100.00;100017.75;5261915;28;20415;-76
2022/09/29 08:10:26;;;;;;;18.27;16.27;;;;;;;7.72;100.00;100016.75;5262030;28;20090;-76
2022/09/29 08:12:58;;;;;;;25.08;16.45;;;;;;;7.66;100.00;100015.97;5261270;28;20041;-76
2022/09/29 08:15:29;;;;;;;17.40;14.63;;;;;;;7.56;100.00;100011.75;5265815;28;20369;-76
2022/09/29 08:18:01;;;;;;;17.53;14.83;;;;;;;7.46;100.00;100023.97;5265600;28;20025;-75
2022/09/29 08:20:34;;;;;;;19.90;12.63;;;;;;;7.37;100.00;100028.41;5265996;28;20490;-76
2022/09/29 08:23:05;;;;;;;19.05;14.60;;;;;;;7.31;100.00;100026.78;5265560;28;20056;-75
2022/09/29 08:25:37;;;;;;;20.87;14.13;;;;;;;7.32;100.00;100035.41;5265809;28;20110;-76
2022/09/29 08:28:10;;;;;;;18.47;14.80;;;;;;;7.39;100.00;100031.84;5265808;28;20067;-75
2022/09/29 08:30:41;;;;;;;21.95;15.82;;;;;;;7.45;100.00;100032.66;5265713;28;20047;-76
2022/09/29 08:33:13;;;;;;;18.87;15.30;;;;;;;7.59;100.00;100040.25;5265667;28;20415;-76
2022/09/29 08:35:45;;;;;;;20.15;14.85;;;;;;;7.73;100.00;100031.41;5265728;28;20033;-75
2022/09/29 08:38:16;;;;;;;19.00;15.50;;;;;;;7.97;100.00;100051.88;5265251;28;20498;-75
2022/09/29 08:40:47;;;;;;;16.33;13.03;;;;;;;8.05;100.00;100054.38;5265704;28;20025;-75
2022/09/29 08:43:30;;;;;;;17.30;14.13;;;;;;;8.25;100.00;100055.81;5265812;28;20056;-75
2022/09/29 08:46:11;;;;;;;19.05;14.65;;;;;;;8.59;100.00;100061.34;5266026;28;20175;-75
2022/09/29 08:48:44;;;;;;;18.65;13.23;;;;;;;8.76;100.00;100054.16;5265351;28;20032;-74
2022/09/29 08:51:31;;;;;;;18.02;12.18;;;;;;;8.91;99.89;100057.38;5265256;28;20041;-75
2022/09/29 08:54:28;;;;;;;17.23;12.93;;;;;;;9.18;98.05;100058.59;5265337;28;20032;-75
2022/09/29 08:57:00;;;;;;;17.30;12.30;;;;;;;9.63;97.44;100062.94;5264425;28;20037;-75
2022/09/29 08:59:32;;;;;;;17.75;11.27;;;;;;;9.99;94.93;100060.44;5265416;28;20055;-74
2022/09/29 09:02:32;;;;;;;15.43;11.87;;;;;;;10.37;93.08;100070.03;5265156;28;20025;-75
2022/09/29 09:05:13;;;;;;;16.08;13.00;;;;;;;10.53;90.59;100074.88;5247557;28;20051;-75
2022/09/29 09:08:04;;;;;;;18.08;11.80;;;;;;;11.04;89.83;100074.44;5265626;28;20172;-75
2022/09/29 09:10:45;;;;;;;15.15;11.30;;;;;;;11.25;90.34;100078.25;5265502;28;20037;-74
2022/09/29 09:13:33;;;;;;;16.10;10.57;;;;;;;11.56;87.03;100079.16;5265180;28;20033;-75
2022/09/29 09:16:24;;;;;;;13.50;10.00;;;;;;;11.84;84.99;100080.06;5265136;28;20045;-75
2022/09/29 09:19:02;;;;;;;12.23;9.75;;;;;;;11.76;82.64;100082.06;5264762;28;20025;-75
2022/09/29 09:21:41;;;;;;;17.10;10.38;;;;;;;12.15;84.02;100089.63;5264904;28;20071;-75
2022/09/29 09:24:12;;;;;;;12.02;9.93;;;;;;;12.72;82.32;100080.00;5264622;28;20025;-75
2022/09/29 09:26:45;;;;;;;10.73;8.87;;;;;;;13.53;80.50;100080.75;5264013;28;20495;-75
2022/09/29 09:29:27;;;;;;;11.63;7.72;;;;;;;13.84;74.75;100075.22;5265092;28;20120;-75
2022/09/29 09:32:27;;;;;;;12.15;8.10;;;;;;;14.72;76.86;100082.28;5265097;28;20528;-75
2022/09/29 09:35:06;;;;;;;9.93;7.40;;;;;;;14.41;70.22;100080.88;5260064;28;20044;-75
2022/09/29 09:37:40;;;;;;;10.07;6.10;;;;;;;14.70;68.19;100080.63;5264582;28;20086;-75
2022/09/29 09:40:17;;;;;;;8.43;6.35;;;;;;;15.18;65.55;100079.50;5264097;28;20052;-75
2022/09/29 09:43:02;;;;;;;9.63;5.80;;;;;;;15.62;66.42;100081.09;5264786;28;20155;-75
2022/09/29 09:45:41;;;;;;;8.68;6.05;;;;;;;15.76;65.99;100076.09;5264560;28;20029;-74
2022/09/29 09:48:43;;;;;;;7.28;5.05;;;;;;;16.43;69.52;100089.63;5264239;28;20100;-74
2022/09/29 09:51:43;;;;;;;6.90;5.13;;;;;;;16.59;65.52;100079.22;5262612;28;20132;-75
2022/09/29 09:54:35;;;;;;;5.85;4.00;;;;;;;16.88;63.67;100087.47;5264080;28;20029;-75
2022/09/29 09:57:31;;;;;;;6.57;4.10;;;;;;;16.89;60.53;100083.94;5264439;28;20033;-75
2022/09/29 10:00:13;;;;;;;4.22;3.70;;;;;;;17.20;60.39;100085.84;5264328;28;20037;-75
2022/09/29 10:02:54;;;;;;;10.55;5.28;;;;;;;17.22;58.23;100086.59;5263632;28;20029;-74
2022/09/29 10:05:33;;;;;;;5.93;4.35;;;;;;;17.57;57.48;100083.06;5263857;28;20076;-75
2022/09/29 10:08:25;;;;;;;6.70;4.90;;;;;;;18.10;58.90;100089.88;5263932;28;20025;-75
2022/09/29 10:10:58;;;;;;;8.07;4.68;;;;;;;17.96;54.12;100085.34;5263777;28;20464;-75
2022/09/29 10:13:30;;;;;;;7.55;4.30;;;;;;;17.71;51.64;100088.47;5263666;28;20052;-75
2022/09/29 10:16:24;;;;;;;6.25;4.78;;;;;;;18.45;56.36;100092.34;5262189;28;20140;-75
2022/09/29 10:18:56;;;;;;;5.32;3.35;;;;;;;18.46;53.11;100087.91;5262583;28;20056;-75
2022/09/29 10:21:28;;;;;;;5.70;3.47;;;;;;;18.47;52.71;100090.47;5263532;28;20135;-74
2022/09/29 10:24:00;;;;;;;4.72;3.38;;;;;;;18.09;52.06;100089.97;5263441;28;20368;-74
2022/09/29 10:26:34;;;;;;;3.70;2.40;;;;;;;18.03;49.10;100091.13;5263477;28;20041;-74
2022/09/29 10:29:22;;;;;;;4.93;3.13;;;;;;;18.17;51.57;100093.88;5263922;28;20468;-74
2022/09/29 10:32:13;;;;;;;6.22;3.58;;;;;;;19.60;51.17;100097.06;5263432;28;20027;-74
2022/09/29 10:34:48;;;;;;;6.55;3.58;;;;;;;19.56;48.36;100112.28;5262318;28;20384;-74
2022/09/29 10:37:20;;;;;;;5.28;3.55;;;;;;;19.55;46.48;100105.28;5261877;28;20166;-74
2022/09/29 10:40:16;;;;;;;5.20;3.23;;;;;;;19.49;47.26;100103.00;5263549;28;20033;-74
2022/09/29 10:42:50;;;;;;;5.38;3.13;;;;;;;19.61;45.91;100102.28;5263973;28;20428;-74
2022/09/29 10:45:27;;;;;;;4.25;3.10;;;;;;;20.84;46.76;100098.06;5263083;28;20039;-75
2022/09/29 10:47:58;;;;;;;5.80;2.75;;;;;;;20.78;42.97;100107.25;5263028;28;20060;-75
2022/09/29 10:50:34;;;;;;;6.57;3.03;;;;;;;21.75;41.64;100098.03;5263096;28;20056;-75
2022/09/29 10:53:23;;;;;;;5.18;3.20;;;;;;;22.37;44.05;100099.81;5262824;28;20048;-75
2022/09/29 10:55:57;;;;;;;7.13;3.28;;;;;;;21.65;39.67;100097.84;5263599;28;20056;-75
2022/09/29 10:58:33;;;;;;;6.13;2.30;;;;;;;22.62;43.00;100102.47;5263152;28;20036;-75
2022/09/29 11:01:12;;;;;;;4.97;2.67;;;;;;;22.28;40.13;100111.09;5263183;28;20036;-75
2022/09/29 11:04:03;;;;;;;4.05;2.88;;;;;;;22.42;40.71;100111.91;5262520;28;20029;-75
2022/09/29 11:06:37;;;;;;;3.33;2.38;;;;;;;22.48;37.62;100117.63;5262950;28;20373;-75
2022/09/29 11:09:14;;;;;;;7.75;2.42;;;;;;;21.90;38.77;100105.88;5262285;28;20037;-75
2022/09/29 11:11:45;;;;;;;3.70;2.10;;;;;;;23.34;37.26;100106.81;5262868;28;20032;-76
2022/09/29 11:14:26;;;;;;;4.60;2.90;;;;;;;23.80;37.13;100119.19;5262292;28;20480;-76
2022/09/29 11:16:59;;;;;;;2.90;2.10;;;;;;;22.79;36.19;100110.03;5262674;28;20415;-75
2022/09/29 11:19:31;;;;;;;3.45;2.22;;;;;;;24.56;36.55;100108.72;5262386;28;20032;-76
2022/09/29 11:22:05;;;;;;;3.75;1.98;;;;;;;24.16;34.47;100109.25;5263239;28;20037;-76
2022/09/29 11:24:59;;;;;;;4.32;2.30;;;;;;;25.20;34.07;100112.31;5262988;28;20052;-76
2022/09/29 11:27:43;;;;;;;3.95;2.67;;;;;;;25.37;34.56;100116.22;5262956;28;20100;-75
2022/09/29 11:30:32;;;;;;;3.08;2.45;;;;;;;24.96;37.53;100117.88;5262205;28;20052;-76
2022/09/29 11:33:22;;;;;;;3.85;2.38;;;;;;;22.29;37.54;100114.56;5262422;28;20025;-75
2022/09/29 11:36:01;;;;;;;4.35;2.00;;;;;;;20.55;40.01;100116.69;5262667;28;20033;-76
2022/09/29 11:38:39;;;;;;;2.95;2.30;;;;;;;19.89;45.34;100115.63;5261241;28;20452;-75
2022/09/29 11:41:30;;;;;;;3.28;2.10;;;;;;;22.26;41.60;100102.34;5262310;28;20021;-76
2022/09/29 11:44:20;;;;;;;3.65;1.92;;;;;;;24.99;37.27;100114.94;5262332;28;20092;-75
2022/09/29 11:47:25;;;;;;;4.43;2.28;;;;;;;26.81;34.79;100110.63;5262632;28;20028;-76
2022/09/29 11:50:29;;;;;;;3.88;1.70;;;;;;;27.74;32.64;100115.38;5222724;28;20407;-76
2022/09/29 11:53:08;;;;;;;1.80;1.45;;;;;;;28.34;25.98;100109.59;5267097;28;20060;-76
2022/09/29 11:55:58;;;;;;;3.15;2.20;;;;;;;28.41;30.12;100120.53;5267141;28;20125;-75
2022/09/29 11:58:50;;;;;;;6.75;1.55;;;;;;;28.74;29.13;100122.56;5266837;28;20033;-76
2022/09/29 12:01:25;;;;;;;4.45;1.63;;;;;;;28.94;27.16;100121.56;5266844;28;20036;-76
2022/09/29 12:03:56;;;;;;;2.70;1.80;;;;;;;30.51;23.68;100127.63;5266336;28;20032;-76